createdAt,value
2019-03-18T00:01:09.269Z,1.47
2019-03-18T00:03:35.311Z,1.17
2019-03-18T00:06:01.748Z,1.20
2019-03-18T00:08:27.801Z,1.60
2019-03-18T00:10:53.844Z,1.43
2019-03-18T00:13:19.920Z,1.03
2019-03-18T00:15:45.973Z,0.93
2019-03-18T00:18:12.049Z,1.43
2019-03-18T00:20:38.099Z,1.30
2019-03-18T00:23:04.804Z,1.20
2019-03-18T00:25:30.855Z,1.10
2019-03-18T00:27:56.988Z,1.10
2019-03-18T00:30:23.283Z,1.10
2019-03-18T00:32:49.613Z,1.00
2019-03-18T00:35:15.692Z,1.20
2019-03-18T00:37:41.744Z,0.90
2019-03-18T00:40:16.076Z,0.77
2019-03-18T00:42:42.255Z,0.97
2019-03-18T00:45:14.790Z,0.80
2019-03-18T00:47:37.676Z,0.97
2019-03-18T00:50:07.556Z,1.17
2019-03-18T00:52:33.599Z,1.47
2019-03-18T00:54:59.688Z,0.70
2019-03-18T00:57:25.735Z,1.10
2019-03-18T00:59:52.451Z,0.87
2019-03-18T01:02:18.776Z,1.00
2019-03-18T01:04:45.236Z,0.83
2019-03-18T01:07:11.326Z,0.90
2019-03-18T01:09:37.763Z,1.07
2019-03-18T01:12:03.851Z,0.70
2019-03-18T01:14:29.896Z,0.90
2019-03-18T01:16:55.952Z,0.87
2019-03-18T01:19:22.032Z,0.70
2019-03-18T01:21:48.117Z,0.70
2019-03-18T01:24:14.159Z,1.03
2019-03-18T01:26:40.549Z,0.80
2019-03-18T01:29:06.992Z,0.50
2019-03-18T01:31:33.041Z,0.93
2019-03-18T01:33:59.732Z,0.60
2019-03-18T01:36:26.069Z,0.60
2019-03-18T01:38:52.112Z,0.73
2019-03-18T01:41:18.160Z,0.60
2019-03-18T01:43:44.248Z,0.50
2019-03-18T01:46:10.294Z,0.60
2019-03-18T01:48:36.752Z,0.53
2019-03-18T01:51:02.796Z,0.60
2019-03-18T01:53:29.211Z,0.80
2019-03-18T01:55:55.303Z,0.70
2019-03-18T01:58:21.593Z,0.57
2019-03-18T02:00:47.640Z,0.50
2019-03-18T02:03:13.734Z,0.40
2019-03-18T02:05:39.783Z,0.80
2019-03-18T02:08:06.099Z,0.67
2019-03-18T02:10:32.448Z,0.47
2019-03-18T02:12:58.497Z,0.70
2019-03-18T02:15:25.191Z,0.50
2019-03-18T02:17:51.240Z,0.60
2019-03-18T02:20:19.733Z,0.50
2019-03-18T02:22:46.009Z,0.70
2019-03-18T02:25:12.201Z,0.50
2019-03-18T02:27:38.251Z,0.70
2019-03-18T02:30:08.178Z,0.50
2019-03-18T02:32:34.928Z,1.00
2019-03-18T02:35:01.362Z,0.70
2019-03-18T02:37:27.790Z,0.40
2019-03-18T02:39:54.231Z,0.47
2019-03-18T02:42:20.285Z,0.40
2019-03-18T02:44:46.338Z,0.60
2019-03-18T02:47:12.832Z,0.60
2019-03-18T02:49:38.964Z,0.50
2019-03-18T02:52:05.010Z,0.47
2019-03-18T02:54:31.104Z,0.43
2019-03-18T02:56:57.405Z,0.90
2019-03-18T02:59:23.833Z,0.40
2019-03-18T03:01:49.919Z,0.40
2019-03-18T03:04:15.967Z,0.53
2019-03-18T03:06:42.381Z,0.53
2019-03-18T03:09:08.537Z,0.40
2019-03-18T03:11:35.019Z,0.80
2019-03-18T03:14:01.082Z,0.30
2019-03-18T03:16:27.747Z,0.60
2019-03-18T03:18:54.785Z,0.40
2019-03-18T03:21:20.870Z,0.30
2019-03-18T03:23:46.922Z,0.30
2019-03-18T03:26:13.368Z,0.60
2019-03-18T03:28:39.412Z,0.50
2019-03-18T03:31:05.526Z,0.50
2019-03-18T03:33:31.940Z,0.43
2019-03-18T03:35:58.684Z,0.40
2019-03-18T03:38:25.018Z,0.87
2019-03-18T03:40:51.265Z,0.50
2019-03-18T03:43:17.687Z,0.83
2019-03-18T03:45:44.005Z,0.40
2019-03-18T03:48:10.071Z,0.50
2019-03-18T03:50:36.228Z,0.40
2019-03-18T03:53:03.006Z,0.50
2019-03-18T03:55:29.141Z,0.50
2019-03-18T03:57:55.217Z,0.50
2019-03-18T04:00:21.569Z,0.30
2019-03-18T04:02:47.901Z,0.40
2019-03-18T04:05:13.984Z,0.40
2019-03-18T04:07:41.279Z,0.40
2019-03-18T04:10:12.585Z,0.30
2019-03-18T04:12:38.626Z,0.40
2019-03-18T04:15:08.503Z,0.50
2019-03-18T04:17:34.922Z,0.50
2019-03-18T04:20:02.508Z,0.40
2019-03-18T04:22:28.544Z,0.40
2019-03-18T04:24:55.065Z,0.47
2019-03-18T04:27:24.513Z,0.50
2019-03-18T04:29:49.102Z,0.40
2019-03-18T04:32:15.212Z,0.40
2019-03-18T04:34:41.265Z,0.43
2019-03-18T04:37:07.307Z,0.40
2019-03-18T04:39:33.396Z,0.50
2019-03-18T04:41:59.433Z,0.43
2019-03-18T04:44:25.844Z,0.57
2019-03-18T04:46:52.643Z,0.50
2019-03-18T04:49:18.676Z,0.40
2019-03-18T04:51:45.043Z,0.40
2019-03-18T04:54:11.381Z,0.40
2019-03-18T04:56:37.792Z,0.57
2019-03-18T04:59:03.880Z,0.30
2019-03-18T05:01:29.928Z,0.30
2019-03-18T05:03:55.985Z,0.30
2019-03-18T05:06:22.053Z,0.67
2019-03-18T05:08:48.204Z,0.33
2019-03-18T05:11:14.382Z,0.30
2019-03-18T05:13:40.712Z,0.30
2019-03-18T05:16:06.873Z,0.40
2019-03-18T05:18:33.249Z,0.40
2019-03-18T05:20:59.305Z,0.40
2019-03-18T05:23:26.015Z,0.40
2019-03-18T05:25:52.113Z,0.40
2019-03-18T05:28:18.531Z,0.40
2019-03-18T05:30:44.575Z,0.40
2019-03-18T05:33:11.013Z,0.40
2019-03-18T05:35:37.060Z,0.43
2019-03-18T05:38:03.108Z,0.40
2019-03-18T05:40:29.191Z,0.47
2019-03-18T05:42:55.232Z,0.50
2019-03-18T05:45:21.313Z,0.30
2019-03-18T05:47:47.360Z,0.37
2019-03-18T05:50:13.796Z,0.30
2019-03-18T05:52:39.875Z,0.40
2019-03-18T05:55:07.213Z,0.30
2019-03-18T05:57:33.300Z,0.50
2019-03-18T05:59:59.348Z,0.50
2019-03-18T06:02:25.442Z,0.30
2019-03-18T06:04:52.170Z,0.30
2019-03-18T06:07:18.239Z,0.40
2019-03-18T06:09:44.638Z,0.50
2019-03-18T06:12:10.685Z,0.43
2019-03-18T06:14:36.737Z,0.50
2019-03-18T06:17:02.820Z,0.50
2019-03-18T06:19:29.240Z,0.30
2019-03-18T06:21:55.562Z,0.40
2019-03-18T06:24:21.644Z,0.40
2019-03-18T06:26:48.033Z,0.50
2019-03-18T06:29:14.109Z,0.70
2019-03-18T06:31:40.265Z,0.40
2019-03-18T06:34:06.595Z,0.40
2019-03-18T06:36:33.020Z,0.40
2019-03-18T06:38:59.109Z,0.40
2019-03-18T06:41:25.168Z,0.50
2019-03-18T06:43:51.227Z,0.40
2019-03-18T06:46:20.119Z,0.53
2019-03-18T06:48:46.522Z,0.43
2019-03-18T06:51:12.587Z,0.30
2019-03-18T06:53:40.165Z,0.57
2019-03-18T06:56:06.519Z,0.37
2019-03-18T06:58:32.870Z,0.40
2019-03-18T07:00:58.946Z,0.40
2019-03-18T07:03:25.320Z,0.40
2019-03-18T07:05:51.736Z,0.40
2019-03-18T07:08:17.788Z,0.40
2019-03-18T07:10:44.228Z,0.43
2019-03-18T07:13:10.297Z,0.30
2019-03-18T07:15:36.364Z,0.60
2019-03-18T07:18:02.692Z,0.60
2019-03-18T07:20:29.046Z,0.40
2019-03-18T07:22:55.124Z,0.97
2019-03-18T07:25:21.164Z,0.40
2019-03-18T07:27:47.240Z,0.40
2019-03-18T07:30:13.689Z,0.50
2019-03-18T07:32:40.053Z,0.40
2019-03-18T07:35:06.499Z,0.83
2019-03-18T07:37:32.570Z,1.30
2019-03-18T07:39:58.621Z,1.23
2019-03-18T07:42:25.064Z,1.10
2019-03-18T07:44:51.578Z,1.00
2019-03-18T07:47:18.128Z,1.43
2019-03-18T07:49:44.207Z,0.50
2019-03-18T07:52:10.251Z,0.50
2019-03-18T07:54:36.333Z,0.70
2019-03-18T07:57:02.520Z,0.60
2019-03-18T07:59:28.572Z,0.70
2019-03-18T08:01:54.620Z,0.47
2019-03-18T08:04:20.699Z,0.70
2019-03-18T08:06:47.033Z,0.70
2019-03-18T08:09:13.131Z,0.70
2019-03-18T08:11:39.180Z,0.80
2019-03-18T08:14:05.917Z,0.50
2019-03-18T08:16:33.097Z,0.70
2019-03-18T08:18:59.144Z,0.60
2019-03-18T08:21:25.837Z,0.50
2019-03-18T08:23:52.020Z,0.73
2019-03-18T08:26:18.064Z,0.40
2019-03-18T08:28:44.405Z,0.60
2019-03-18T08:31:10.589Z,0.70
2019-03-18T08:33:37.035Z,0.50
2019-03-18T08:36:03.109Z,0.60
2019-03-18T08:38:29.391Z,0.40
2019-03-18T08:40:55.548Z,0.50
2019-03-18T08:43:21.591Z,0.47
2019-03-18T08:45:47.781Z,0.87
2019-03-18T08:48:13.835Z,0.70
2019-03-18T08:50:40.152Z,0.60
2019-03-18T08:53:06.228Z,0.87
2019-03-18T08:55:32.277Z,0.57
2019-03-18T08:57:58.630Z,0.90
2019-03-18T09:00:24.676Z,0.77
2019-03-18T09:02:51.384Z,0.50
2019-03-18T09:05:17.464Z,0.50
2019-03-18T09:07:43.612Z,0.53
2019-03-18T09:10:11.462Z,0.50
2019-03-18T09:12:37.535Z,0.50
2019-03-18T09:15:06.280Z,0.60
2019-03-18T09:17:32.645Z,0.53
2019-03-18T09:19:58.688Z,0.57
2019-03-18T09:22:24.996Z,0.40
2019-03-18T09:24:51.075Z,0.50
2019-03-18T09:27:17.448Z,0.50
2019-03-18T09:29:43.775Z,0.60
2019-03-18T09:32:10.233Z,0.50
2019-03-18T09:34:36.539Z,0.60
2019-03-18T09:37:02.621Z,0.50
2019-03-18T09:39:28.665Z,0.47
2019-03-18T09:41:55.423Z,0.50
2019-03-18T09:44:21.761Z,0.40
2019-03-18T09:46:47.837Z,0.63
2019-03-18T09:49:21.467Z,0.50
2019-03-18T09:51:42.571Z,0.40
2019-03-18T09:54:08.920Z,0.60
2019-03-18T09:56:34.965Z,0.50
2019-03-18T09:59:01.033Z,0.50
2019-03-18T10:01:27.219Z,0.40
2019-03-18T10:03:53.516Z,0.50
2019-03-18T10:06:19.594Z,0.57
2019-03-18T10:08:45.669Z,0.47
2019-03-18T10:11:11.996Z,0.50
2019-03-18T10:13:38.081Z,0.40
2019-03-18T10:16:04.145Z,0.57
2019-03-18T10:18:30.555Z,0.40
2019-03-18T10:20:56.910Z,0.40
2019-03-18T10:23:23.242Z,0.50
2019-03-18T10:25:49.689Z,0.53
2019-03-18T10:28:16.649Z,0.50
2019-03-18T10:30:43.257Z,0.60
2019-03-18T10:33:09.680Z,0.40
2019-03-18T10:35:35.736Z,0.50
2019-03-18T10:38:02.040Z,0.50
2019-03-18T10:40:28.125Z,0.53
2019-03-18T10:42:54.168Z,0.40
2019-03-18T10:45:20.611Z,0.50
2019-03-18T10:47:46.705Z,0.40
2019-03-18T10:50:15.323Z,0.67
2019-03-18T10:52:41.415Z,0.50
2019-03-18T10:55:09.146Z,0.70
2019-03-18T10:57:35.652Z,1.00
2019-03-18T11:00:04.005Z,0.50
2019-03-18T11:02:30.456Z,0.70
2019-03-18T11:04:56.782Z,0.40
2019-03-18T11:07:22.863Z,0.50
2019-03-18T11:09:49.245Z,0.60
2019-03-18T11:12:15.283Z,0.50
2019-03-18T11:14:41.687Z,0.67
2019-03-18T11:17:08.129Z,0.43
2019-03-18T11:19:34.492Z,0.50
2019-03-18T11:22:00.784Z,0.67
2019-03-18T11:24:27.216Z,0.40
2019-03-18T11:26:55.365Z,1.27
2019-03-18T11:29:21.252Z,0.40
2019-03-18T11:31:47.295Z,1.07
2019-03-18T11:34:13.372Z,0.60
2019-03-18T11:36:39.895Z,0.40
2019-03-18T11:39:06.244Z,0.50
2019-03-18T11:41:32.328Z,0.50
2019-03-18T11:43:58.412Z,0.50
2019-03-18T11:46:24.565Z,0.60
2019-03-18T11:48:50.920Z,0.43
2019-03-18T11:51:17.367Z,0.50
2019-03-18T11:53:43.689Z,0.30
2019-03-18T11:56:10.426Z,0.40
2019-03-18T11:58:36.503Z,0.50
2019-03-18T12:01:03.207Z,0.40
2019-03-18T12:03:29.628Z,0.50
2019-03-18T12:05:56.068Z,0.50
2019-03-18T12:08:22.380Z,0.63
2019-03-18T12:10:48.802Z,0.50
2019-03-18T12:13:15.189Z,0.40
2019-03-18T12:15:41.680Z,0.60
2019-03-18T12:18:07.757Z,0.77
2019-03-18T12:20:34.171Z,0.60
2019-03-18T12:23:00.253Z,0.40
2019-03-18T12:25:26.305Z,0.40
2019-03-18T12:27:52.708Z,0.40
2019-03-18T12:30:21.160Z,0.37
2019-03-18T12:32:47.675Z,0.50
2019-03-18T12:35:14.185Z,0.60
2019-03-18T12:37:40.566Z,0.73
2019-03-18T12:40:15.526Z,0.67
2019-03-18T12:42:41.812Z,0.40
2019-03-18T12:45:10.133Z,0.50
2019-03-18T12:47:36.648Z,0.50
2019-03-18T12:50:09.505Z,0.50
2019-03-18T12:52:35.553Z,0.60
2019-03-18T12:55:03.135Z,0.50
2019-03-18T12:57:29.555Z,0.40
2019-03-18T12:59:55.596Z,0.50
2019-03-18T13:02:21.679Z,0.60
2019-03-18T13:04:47.724Z,0.47
2019-03-18T13:07:13.777Z,0.63
2019-03-18T13:09:39.859Z,0.60
2019-03-18T13:12:05.908Z,0.60
2019-03-18T13:14:31.988Z,0.40
2019-03-18T13:16:58.355Z,0.50
2019-03-18T13:19:24.432Z,0.50
2019-03-18T13:21:50.490Z,0.47
2019-03-18T13:24:16.592Z,0.60
2019-03-18T13:26:43.180Z,0.60
2019-03-18T13:29:10.144Z,0.47
2019-03-18T13:31:36.336Z,0.60
2019-03-18T13:34:02.397Z,0.50
2019-03-18T13:36:28.485Z,0.50
2019-03-18T13:38:54.564Z,0.40
2019-03-18T13:41:20.612Z,0.60
2019-03-18T13:43:46.796Z,0.50
2019-03-18T13:46:13.189Z,0.50
2019-03-18T13:48:39.235Z,0.70
2019-03-18T13:51:05.645Z,0.40
2019-03-18T13:53:32.200Z,0.30
2019-03-18T13:55:58.609Z,0.60
2019-03-18T13:58:24.830Z,0.50
2019-03-18T14:00:50.875Z,0.50
2019-03-18T14:03:16.936Z,0.70
2019-03-18T14:05:43.312Z,0.60
2019-03-18T14:08:09.409Z,0.40
2019-03-18T14:10:35.461Z,0.50
2019-03-18T14:13:01.509Z,0.63
2019-03-18T14:15:27.953Z,0.43
2019-03-18T14:17:53.998Z,0.63
2019-03-18T14:20:23.183Z,0.60
2019-03-18T14:22:49.243Z,0.40
2019-03-18T14:25:15.351Z,0.60
2019-03-18T14:27:41.477Z,0.67
2019-03-18T14:30:12.727Z,0.63
2019-03-18T14:32:39.089Z,0.47
2019-03-18T14:35:07.255Z,0.40
2019-03-18T14:37:33.688Z,0.50
2019-03-18T14:39:59.781Z,0.50
2019-03-18T14:42:26.147Z,0.60
2019-03-18T14:44:52.617Z,0.57
2019-03-18T14:47:18.666Z,0.50
2019-03-18T14:49:46.366Z,0.60
2019-03-18T14:52:13.010Z,0.60
2019-03-18T14:54:39.083Z,0.50
2019-03-18T14:57:05.186Z,0.50
2019-03-18T14:59:31.227Z,0.50
2019-03-18T15:01:57.276Z,0.70
2019-03-18T15:04:23.435Z,0.60
2019-03-18T15:06:49.492Z,0.40
2019-03-18T15:09:15.595Z,0.50
2019-03-18T15:11:42.420Z,0.70
2019-03-18T15:14:09.147Z,0.73
2019-03-18T15:16:35.206Z,0.60
2019-03-18T15:19:01.303Z,0.60
2019-03-18T15:21:27.793Z,0.30
2019-03-18T15:23:54.163Z,0.50
2019-03-18T15:26:20.218Z,0.63
2019-03-18T15:28:46.325Z,0.60
2019-03-18T15:31:12.371Z,0.50
2019-03-18T15:33:38.471Z,0.50
2019-03-18T15:36:04.519Z,0.70
2019-03-18T15:38:30.914Z,0.53
2019-03-18T15:40:57.026Z,0.50
2019-03-18T15:43:23.369Z,0.40
2019-03-18T15:45:49.484Z,0.60
2019-03-18T15:48:15.893Z,0.50
2019-03-18T15:50:41.961Z,0.30
2019-03-18T15:53:08.691Z,0.50
2019-03-18T15:55:34.800Z,0.40
2019-03-18T15:58:00.843Z,0.50
2019-03-18T16:00:32.288Z,0.80
2019-03-18T16:02:59.944Z,0.50
2019-03-18T16:05:25.997Z,0.67
2019-03-18T16:07:52.577Z,1.20
2019-03-18T16:10:19.983Z,1.20
2019-03-18T16:12:46.371Z,6.57
2019-03-18T16:15:17.809Z,7.67
2019-03-18T16:17:43.912Z,8.30
2019-03-18T16:20:18.255Z,7.70
2019-03-18T16:22:44.364Z,6.43
2019-03-18T16:25:12.768Z,7.37
2019-03-18T16:27:39.406Z,12.90
2019-03-18T16:30:11.849Z,100.60
2019-03-18T16:32:38.243Z,314.77
2019-03-18T16:35:07.852Z,435.63
2019-03-18T16:37:33.952Z,335.57
2019-03-18T16:40:00.000Z,230.00
2019-03-18T16:42:26.129Z,151.87
2019-03-18T16:44:52.177Z,163.50
2019-03-18T16:47:18.560Z,170.70
2019-03-18T16:49:44.612Z,155.67
2019-03-18T16:52:11.017Z,151.47
2019-03-18T16:54:37.064Z,144.77
2019-03-18T16:57:03.473Z,147.47
2019-03-18T16:59:29.811Z,146.70
2019-03-18T17:01:56.644Z,143.33
2019-03-18T17:04:23.380Z,130.97
2019-03-18T17:06:49.710Z,131.67
2019-03-18T17:09:15.818Z,126.07
2019-03-18T17:11:42.185Z,125.30
2019-03-18T17:14:08.231Z,125.17
2019-03-18T17:16:34.344Z,119.77
2019-03-18T17:19:00.391Z,117.50
2019-03-18T17:21:26.871Z,120.67
2019-03-18T17:23:53.305Z,111.83
2019-03-18T17:26:20.045Z,113.27
2019-03-18T17:28:46.455Z,110.33
2019-03-18T17:31:12.927Z,109.50
2019-03-18T17:33:38.976Z,101.97
2019-03-18T17:36:05.085Z,97.47
2019-03-18T17:38:31.486Z,98.23
2019-03-18T17:40:57.600Z,97.40
2019-03-18T17:43:23.940Z,93.97
2019-03-18T17:45:50.365Z,91.60
2019-03-18T17:48:17.112Z,90.60
2019-03-18T17:50:43.165Z,87.30
2019-03-18T17:53:09.590Z,86.23
2019-03-18T17:55:35.907Z,82.63
2019-03-18T17:58:01.948Z,81.80
2019-03-18T18:00:32.854Z,79.03
2019-03-18T18:02:59.712Z,78.17
2019-03-18T18:05:26.200Z,74.50
2019-03-18T18:07:52.672Z,74.63
2019-03-18T18:10:18.714Z,71.07
2019-03-18T18:12:44.876Z,70.07
2019-03-18T18:15:11.721Z,70.23
2019-03-18T18:17:37.772Z,69.13
2019-03-18T18:20:07.684Z,63.93
2019-03-18T18:22:33.727Z,61.00
2019-03-18T18:24:59.792Z,58.23
2019-03-18T18:27:26.591Z,59.53
2019-03-18T18:29:52.913Z,57.87
2019-03-18T18:32:19.347Z,55.17
2019-03-18T18:34:45.874Z,53.60
2019-03-18T18:37:11.921Z,52.57
2019-03-18T18:39:38.091Z,51.97
2019-03-18T18:42:04.136Z,51.27
2019-03-18T18:44:30.892Z,47.57
2019-03-18T18:46:57.309Z,49.13
2019-03-18T18:49:23.421Z,47.30
2019-03-18T18:51:49.773Z,46.33
2019-03-18T18:54:15.887Z,44.90
2019-03-18T18:56:42.238Z,43.47
2019-03-18T18:59:08.647Z,44.50
2019-03-18T19:01:34.759Z,42.67
2019-03-18T19:04:00.812Z,41.73
2019-03-18T19:06:27.140Z,40.50
2019-03-18T19:08:53.249Z,39.73
2019-03-18T19:11:19.601Z,38.90
2019-03-18T19:13:46.085Z,38.80
2019-03-18T19:16:12.464Z,36.90
2019-03-18T19:18:38.510Z,34.40
2019-03-18T19:21:04.614Z,34.70
2019-03-18T19:23:37.703Z,33.83
2019-03-18T19:25:59.046Z,33.93
2019-03-18T19:28:25.451Z,33.97
2019-03-18T19:30:51.500Z,34.23
2019-03-18T19:33:17.622Z,33.20
2019-03-18T19:35:43.663Z,33.57
2019-03-18T19:38:10.135Z,30.90
2019-03-18T19:40:36.576Z,31.20
2019-03-18T19:43:02.625Z,29.27
2019-03-18T19:45:28.747Z,28.47
2019-03-18T19:47:55.469Z,30.13
2019-03-18T19:50:24.684Z,28.40
2019-03-18T19:52:51.401Z,26.77
2019-03-18T19:55:17.454Z,28.20
2019-03-18T19:57:43.855Z,27.67
2019-03-18T20:00:22.425Z,26.40
2019-03-18T20:02:48.471Z,25.97
2019-03-18T20:05:16.454Z,23.33
2019-03-18T20:07:42.945Z,26.43
2019-03-18T20:10:11.694Z,25.17
2019-03-18T20:12:37.739Z,23.37
2019-03-18T20:15:06.392Z,23.97
2019-03-18T20:17:32.720Z,24.37
2019-03-18T20:19:58.777Z,24.13
2019-03-18T20:22:25.349Z,24.23
2019-03-18T20:24:51.392Z,20.87
2019-03-18T20:27:17.555Z,22.87
2019-03-18T20:29:43.999Z,21.40
2019-03-18T20:32:10.396Z,20.00
2019-03-18T20:34:36.560Z,19.43
2019-03-18T20:37:03.595Z,20.10
2019-03-18T20:39:31.059Z,20.13
2019-03-18T20:41:57.193Z,19.17
2019-03-18T20:44:23.576Z,20.60
2019-03-18T20:46:49.739Z,19.63
2019-03-18T20:49:17.102Z,19.70
2019-03-18T20:51:44.124Z,19.07
2019-03-18T20:54:12.300Z,17.37
2019-03-18T20:56:38.343Z,17.13
2019-03-18T20:59:04.492Z,16.93
2019-03-18T21:01:30.528Z,18.00
2019-03-18T21:03:56.585Z,16.00
2019-03-18T21:06:23.035Z,17.60
2019-03-18T21:08:49.332Z,16.73
2019-03-18T21:11:15.443Z,15.40
2019-03-18T21:13:41.488Z,15.70
2019-03-18T21:16:07.608Z,15.23
2019-03-18T21:18:33.716Z,16.93
2019-03-18T21:21:00.060Z,15.50
2019-03-18T21:23:26.529Z,14.87
2019-03-18T21:25:52.572Z,15.47
2019-03-18T21:28:18.674Z,14.10
2019-03-18T21:30:45.020Z,13.30
2019-03-18T21:33:11.151Z,13.03
2019-03-18T21:35:37.812Z,12.63
2019-03-18T21:38:03.860Z,13.90
2019-03-18T21:40:30.292Z,12.57
2019-03-18T21:42:57.027Z,12.60
2019-03-18T21:45:23.932Z,12.63
2019-03-18T21:47:51.092Z,12.13
2019-03-18T21:50:17.196Z,12.80
2019-03-18T21:52:43.707Z,11.43
2019-03-18T21:55:11.120Z,11.97
2019-03-18T21:57:37.575Z,11.50
2019-03-18T22:00:17.517Z,10.63
2019-03-18T22:02:43.665Z,10.00
2019-03-18T22:05:10.380Z,10.10
2019-03-18T22:07:36.801Z,9.70
2019-03-18T22:10:12.744Z,11.63
2019-03-18T22:12:39.047Z,9.40
2019-03-18T22:15:08.923Z,10.60
2019-03-18T22:17:34.977Z,8.97
2019-03-18T22:20:01.473Z,9.83
2019-03-18T22:22:27.899Z,9.30
2019-03-18T22:24:54.048Z,9.00
2019-03-18T22:27:20.092Z,9.67
2019-03-18T22:29:46.480Z,8.80
2019-03-18T22:32:12.818Z,8.90
2019-03-18T22:34:39.140Z,7.87
2019-03-18T22:37:05.223Z,7.97
2019-03-18T22:39:31.272Z,7.83
2019-03-18T22:41:57.357Z,6.60
2019-03-18T22:44:23.464Z,7.67
2019-03-18T22:46:49.768Z,6.83
2019-03-18T22:49:16.220Z,7.80
2019-03-18T22:51:42.269Z,7.40
2019-03-18T22:54:08.389Z,7.50
2019-03-18T22:56:34.776Z,7.40
2019-03-18T22:59:01.421Z,6.87
2019-03-18T23:01:28.265Z,6.40
2019-03-18T23:03:54.689Z,6.30
2019-03-18T23:06:21.015Z,6.20
2019-03-18T23:08:48.891Z,6.50
2019-03-18T23:11:15.328Z,5.83
2019-03-18T23:13:41.381Z,5.97
2019-03-18T23:16:08.075Z,6.97
2019-03-18T23:18:34.491Z,6.20
2019-03-18T23:21:00.577Z,5.90
2019-03-18T23:23:26.964Z,5.67
2019-03-18T23:25:53.299Z,5.77
2019-03-18T23:28:19.363Z,4.70
2019-03-18T23:30:45.752Z,5.03
2019-03-18T23:33:11.809Z,4.80
2019-03-18T23:35:37.889Z,5.17
2019-03-18T23:38:04.363Z,5.17
2019-03-18T23:40:30.435Z,4.33
2019-03-18T23:42:56.879Z,4.30
2019-03-18T23:45:23.330Z,5.00
2019-03-18T23:47:49.956Z,4.80
2019-03-18T23:50:16.007Z,4.90
2019-03-18T23:52:42.955Z,4.40
2019-03-18T23:55:19.046Z,4.30
2019-03-18T23:57:38.592Z,4.50
